createdAt,value
2023-01-17T00:00:03.919Z,25.90
2023-01-17T00:02:35.992Z,27.80
2023-01-17T00:05:28.168Z,27.30
2023-01-17T00:08:17.555Z,29.20
2023-01-17T00:10:49.504Z,28.20
2023-01-17T00:13:21.384Z,30.30
2023-01-17T00:15:53.519Z,28.20
2023-01-17T00:18:25.396Z,30.00
2023-01-17T00:21:26.691Z,28.90
2023-01-17T00:24:16.145Z,27.00
2023-01-17T00:27:02.188Z,25.80
2023-01-17T00:29:32.845Z,26.90
2023-01-17T00:32:03.803Z,27.00
2023-01-17T00:34:34.516Z,27.10
2023-01-17T00:37:05.305Z,27.80
2023-01-17T00:39:36.061Z,27.90
2023-01-17T00:42:06.871Z,28.10
2023-01-17T00:44:56.086Z,27.80
2023-01-17T00:47:45.549Z,26.00
2023-01-17T00:50:42.069Z,26.90
2023-01-17T00:53:31.813Z,27.40
2023-01-17T00:56:22.741Z,27.00
2023-01-17T00:59:14.389Z,27.50
2023-01-17T01:02:03.973Z,26.30
2023-01-17T01:04:53.651Z,26.60
2023-01-17T01:07:43.327Z,26.90
2023-01-17T01:10:37.200Z,26.10
2023-01-17T01:13:26.531Z,27.10
2023-01-17T01:16:17.858Z,26.90
2023-01-17T01:21:55.661Z,25.50
2023-01-17T01:24:45.398Z,26.30
2023-01-17T01:27:34.991Z,25.30
2023-01-17T01:30:32.279Z,26.50
2023-01-17T01:33:21.115Z,25.30
2023-01-17T01:35:55.098Z,26.90
2023-01-17T01:38:27.867Z,25.60
2023-01-17T01:40:59.726Z,25.60
2023-01-17T01:43:46.865Z,27.40
2023-01-17T01:46:22.003Z,26.90
2023-01-17T01:48:57.859Z,27.20
2023-01-17T01:51:34.814Z,25.00
2023-01-17T01:54:12.796Z,24.50
2023-01-17T01:56:46.449Z,26.40
2023-01-17T01:59:21.384Z,26.50
2023-01-17T02:01:57.056Z,26.30
2023-01-17T02:04:30.554Z,27.40
2023-01-17T02:07:08.453Z,27.20
2023-01-17T02:09:40.588Z,27.10
2023-01-17T02:12:13.471Z,27.30
2023-01-17T02:14:45.373Z,27.80
2023-01-17T02:17:31.243Z,27.10
2023-01-17T02:20:32.245Z,26.50
2023-01-17T02:23:34.371Z,25.70
2023-01-17T02:26:46.063Z,26.30
2023-01-17T02:29:58.615Z,27.20
2023-01-17T02:32:39.501Z,25.70
2023-01-17T02:35:21.676Z,26.20
2023-01-17T02:38:04.392Z,26.40
2023-01-17T02:40:40.806Z,25.20
2023-01-17T02:43:15.876Z,26.20
2023-01-17T02:45:47.719Z,25.50
2023-01-17T02:48:25.844Z,24.10
2023-01-17T02:51:12.818Z,25.60
2023-01-17T02:53:54.123Z,25.20
2023-01-17T02:56:41.731Z,25.50
2023-01-17T02:59:26.494Z,24.40
2023-01-17T03:02:08.577Z,25.50
2023-01-17T03:04:48.824Z,26.60
2023-01-17T03:07:25.569Z,26.30
2023-01-17T03:10:02.023Z,25.20
2023-01-17T03:12:38.782Z,25.70
2023-01-17T03:15:16.133Z,25.30
2023-01-17T03:17:51.539Z,22.90
2023-01-17T03:20:27.868Z,25.60
2023-01-17T03:22:59.699Z,25.50
2023-01-17T03:25:32.343Z,24.70
2023-01-17T03:28:04.168Z,24.50
2023-01-17T03:30:36.049Z,24.60
2023-01-17T03:33:07.956Z,20.90
2023-01-17T03:35:39.822Z,23.70
2023-01-17T03:38:11.695Z,24.10
2023-01-17T03:40:43.887Z,23.70
2023-01-17T03:43:15.806Z,23.20
2023-01-17T03:45:49.781Z,22.50
2023-01-17T03:48:22.368Z,24.10
2023-01-17T03:50:54.495Z,24.00
2023-01-17T03:53:26.700Z,22.60
2023-01-17T03:55:58.536Z,22.90
2023-01-17T03:58:30.370Z,23.30
2023-01-17T04:01:02.420Z,22.30
2023-01-17T04:03:34.452Z,21.30
2023-01-17T04:06:06.875Z,21.80
2023-01-17T04:08:38.748Z,21.00
2023-01-17T04:11:10.710Z,20.90
2023-01-17T04:13:42.586Z,20.40
2023-01-17T04:16:18.286Z,20.50
2023-01-17T04:18:50.190Z,19.20
2023-01-17T04:21:22.084Z,18.70
2023-01-17T04:23:53.921Z,17.90
2023-01-17T04:26:25.791Z,16.60
2023-01-17T04:28:57.583Z,19.00
2023-01-17T04:31:29.742Z,17.00
2023-01-17T04:34:01.885Z,15.90
2023-01-17T04:36:34.182Z,15.20
2023-01-17T04:39:06.680Z,14.70
2023-01-17T04:41:39.096Z,13.40
2023-01-17T04:44:10.964Z,13.60
2023-01-17T04:46:42.914Z,12.10
2023-01-17T04:49:14.762Z,11.80
2023-01-17T04:51:46.683Z,11.40
2023-01-17T04:54:18.624Z,12.00
2023-01-17T04:56:50.495Z,11.80
2023-01-17T04:59:22.390Z,10.50
2023-01-17T05:01:54.728Z,11.10
2023-01-17T05:04:26.780Z,10.90
2023-01-17T05:06:58.646Z,10.30
2023-01-17T05:09:30.486Z,10.80
2023-01-17T05:12:02.379Z,9.80
2023-01-17T05:14:34.606Z,8.90
2023-01-17T05:17:06.553Z,9.30
2023-01-17T05:19:38.679Z,7.90
2023-01-17T05:22:15.961Z,7.60
2023-01-17T05:24:49.162Z,7.50
2023-01-17T05:27:21.022Z,6.90
2023-01-17T05:29:53.439Z,7.00
2023-01-17T05:32:25.313Z,6.30
2023-01-17T05:34:57.118Z,7.50
2023-01-17T05:37:28.986Z,6.60
2023-01-17T05:40:00.925Z,6.30
2023-01-17T05:42:32.863Z,6.70
2023-01-17T05:45:04.808Z,6.40
2023-01-17T05:47:36.673Z,5.90
2023-01-17T05:50:18.473Z,6.90
2023-01-17T05:52:54.804Z,6.50
2023-01-17T05:55:27.568Z,6.30
2023-01-17T05:57:59.873Z,6.60
2023-01-17T06:00:32.883Z,6.10
2023-01-17T06:03:05.402Z,6.80
2023-01-17T06:05:37.442Z,6.20
2023-01-17T06:08:11.349Z,6.20
2023-01-17T06:10:43.211Z,6.10
2023-01-17T06:13:20.919Z,5.80
2023-01-17T06:15:52.796Z,6.10
2023-01-17T06:18:24.784Z,5.50
2023-01-17T06:20:56.815Z,5.00
2023-01-17T06:23:29.423Z,4.70
2023-01-17T06:26:05.020Z,4.60
2023-01-17T06:28:37.013Z,5.00
2023-01-17T06:31:12.209Z,4.00
2023-01-17T06:33:44.417Z,3.70
2023-01-17T06:36:16.355Z,3.70
2023-01-17T06:38:50.662Z,3.60
2023-01-17T06:41:23.328Z,3.90
2023-01-17T06:43:56.993Z,3.50
2023-01-17T06:46:28.952Z,3.50
2023-01-17T06:49:00.968Z,3.70
2023-01-17T06:51:32.828Z,4.00
2023-01-17T06:54:04.769Z,3.70
2023-01-17T06:56:36.768Z,3.80
2023-01-17T06:59:10.217Z,3.70
2023-01-17T07:01:42.598Z,3.60
2023-01-17T07:04:14.533Z,3.90
2023-01-17T07:06:46.399Z,3.40
2023-01-17T07:09:18.620Z,3.30
2023-01-17T07:11:51.948Z,2.90
2023-01-17T07:14:24.019Z,3.50
2023-01-17T07:16:56.067Z,3.00
2023-01-17T07:19:28.111Z,3.30
2023-01-17T07:21:59.961Z,2.60
2023-01-17T07:24:32.904Z,2.80
2023-01-17T07:27:04.887Z,3.10
2023-01-17T07:29:36.786Z,3.10
2023-01-17T07:32:09.008Z,2.80
2023-01-17T07:34:40.983Z,2.80
2023-01-17T07:37:15.090Z,2.50
2023-01-17T07:39:47.307Z,2.40
2023-01-17T07:42:19.333Z,2.50
2023-01-17T07:44:51.287Z,1.90
2023-01-17T07:47:24.840Z,2.00
2023-01-17T07:49:56.806Z,1.70
2023-01-17T07:52:28.790Z,2.00
2023-01-17T07:55:00.757Z,2.20
2023-01-17T07:57:32.920Z,2.20
2023-01-17T08:00:17.295Z,1.90
2023-01-17T08:02:49.893Z,2.20
2023-01-17T08:05:21.888Z,3.60
2023-01-17T08:07:54.382Z,2.20
2023-01-17T08:10:33.219Z,1.90
2023-01-17T08:13:05.259Z,2.30
2023-01-17T08:15:37.152Z,2.10
2023-01-17T08:18:09.135Z,3.20
2023-01-17T08:20:42.668Z,4.50
2023-01-17T08:23:14.763Z,4.70
2023-01-17T08:25:46.608Z,3.70
2023-01-17T08:28:19.855Z,3.10
2023-01-17T08:30:51.840Z,3.40
2023-01-17T08:33:23.726Z,2.90
2023-01-17T08:35:56.031Z,4.20
2023-01-17T08:38:28.026Z,3.80
2023-01-17T08:41:02.858Z,5.30
2023-01-17T08:43:34.750Z,4.00
2023-01-17T08:46:07.156Z,3.10
2023-01-17T08:48:39.078Z,2.80
2023-01-17T08:51:12.045Z,3.50
2023-01-17T08:53:43.991Z,3.80
2023-01-17T08:56:16.168Z,4.20
2023-01-17T08:58:48.083Z,2.80
2023-01-17T09:01:20.563Z,2.80
2023-01-17T09:03:52.729Z,3.20
2023-01-17T09:06:25.323Z,2.50
2023-01-17T09:08:57.278Z,2.80
2023-01-17T09:11:29.333Z,2.70
2023-01-17T09:14:02.097Z,2.60
2023-01-17T09:16:34.689Z,2.60
2023-01-17T09:19:06.590Z,2.80
2023-01-17T09:21:38.764Z,2.80
2023-01-17T09:24:12.559Z,2.40
2023-01-17T09:26:44.590Z,2.30
2023-01-17T09:29:17.976Z,2.30
2023-01-17T09:31:50.071Z,2.50
2023-01-17T09:34:23.694Z,3.20
2023-01-17T09:36:57.108Z,3.30
2023-01-17T09:39:30.923Z,3.40
2023-01-17T09:42:10.072Z,3.30
2023-01-17T09:44:47.195Z,2.30
2023-01-17T09:47:29.734Z,2.80
2023-01-17T09:50:16.346Z,3.00
2023-01-17T09:52:48.711Z,2.80
2023-01-17T09:55:21.246Z,2.30
2023-01-17T10:01:48.518Z,2.40
2023-01-17T10:04:39.269Z,2.30
2023-01-17T10:07:20.766Z,1.80
2023-01-17T10:10:05.255Z,2.00
2023-01-17T10:12:52.014Z,1.70
2023-01-17T10:15:40.277Z,1.70
2023-01-17T10:18:31.120Z,1.80
2023-01-17T10:21:44.227Z,2.20
2023-01-17T10:24:40.011Z,2.50
2023-01-17T10:27:21.522Z,1.90
2023-01-17T10:29:54.479Z,2.00
2023-01-17T10:32:30.802Z,2.10
2023-01-17T10:35:14.197Z,2.00
2023-01-17T10:37:47.808Z,1.70
2023-01-17T10:40:29.241Z,1.70
2023-01-17T10:43:06.202Z,2.00
2023-01-17T10:45:43.735Z,1.80
2023-01-17T10:48:23.237Z,2.20
2023-01-17T10:51:02.636Z,2.40
2023-01-17T10:53:46.875Z,2.20
2023-01-17T10:56:28.099Z,2.60
2023-01-17T10:59:27.441Z,3.60
2023-01-17T11:01:59.907Z,2.90
2023-01-17T11:04:38.083Z,2.50
2023-01-17T11:07:16.282Z,1.70
2023-01-17T11:09:49.904Z,3.70
2023-01-17T11:12:28.144Z,2.90
2023-01-17T11:15:34.521Z,2.40
2023-01-17T11:18:19.945Z,2.10
2023-01-17T11:20:52.052Z,2.00
2023-01-17T11:23:30.857Z,2.00
2023-01-17T11:26:04.832Z,2.00
2023-01-17T11:28:37.996Z,2.30
2023-01-17T11:31:26.684Z,2.80
2023-01-17T11:34:17.545Z,3.00
2023-01-17T11:36:50.327Z,2.00
2023-01-17T11:39:28.409Z,2.00
2023-01-17T11:42:00.432Z,1.60
2023-01-17T11:44:34.225Z,2.10
2023-01-17T11:47:19.421Z,2.60
2023-01-17T11:49:52.177Z,2.50
2023-01-17T11:52:32.909Z,2.20
2023-01-17T11:55:07.118Z,1.90
2023-01-17T11:58:00.116Z,1.40
2023-01-17T12:00:39.037Z,1.40
2023-01-17T12:03:22.263Z,1.10
2023-01-17T12:06:02.923Z,1.60
2023-01-17T12:12:14.923Z,1.60
2023-01-17T12:15:01.104Z,1.90
2023-01-17T12:17:51.689Z,2.00
2023-01-17T12:20:35.590Z,1.90
2023-01-17T12:23:28.929Z,2.50
2023-01-17T12:26:19.592Z,2.10
2023-01-17T12:29:21.584Z,2.00
2023-01-17T12:32:00.533Z,1.70
2023-01-17T12:34:35.594Z,2.00
2023-01-17T12:37:19.146Z,2.20
2023-01-17T12:39:55.055Z,3.40
2023-01-17T12:42:30.957Z,3.80
2023-01-17T12:45:08.828Z,3.50
2023-01-17T12:47:48.338Z,3.10
2023-01-17T12:50:27.585Z,3.00
2023-01-17T12:53:05.742Z,2.60
2023-01-17T12:55:42.769Z,2.00
2023-01-17T12:58:21.130Z,1.80
2023-01-17T13:01:00.808Z,1.90
2023-01-17T13:03:44.780Z,2.10
2023-01-17T13:06:23.268Z,2.50
2023-01-17T13:09:02.102Z,2.30
2023-01-17T13:11:41.366Z,1.60
2023-01-17T13:14:13.573Z,1.70
2023-01-17T13:16:50.171Z,1.40
2023-01-17T13:19:32.595Z,1.70
2023-01-17T13:22:08.605Z,2.80
2023-01-17T13:24:50.830Z,2.30
2023-01-17T13:28:02.929Z,1.70
2023-01-17T13:31:09.733Z,1.80
2023-01-17T13:34:10.267Z,1.60
2023-01-17T13:36:57.167Z,2.10
2023-01-17T13:39:46.879Z,3.30
2023-01-17T13:42:30.600Z,3.20
2023-01-17T13:45:07.825Z,2.70
2023-01-17T13:47:42.798Z,3.00
2023-01-17T13:50:50.671Z,2.70
2023-01-17T13:53:56.952Z,3.50
2023-01-17T13:56:36.497Z,2.80
2023-01-17T13:59:31.016Z,2.00
2023-01-17T14:02:02.959Z,2.00
2023-01-17T14:05:09.416Z,1.70
2023-01-17T14:07:47.828Z,1.50
2023-01-17T14:10:29.699Z,1.70
2023-01-17T14:13:01.913Z,1.70
2023-01-17T14:15:36.719Z,1.80
2023-01-17T14:18:30.717Z,1.90
2023-01-17T14:21:20.358Z,2.10
2023-01-17T14:23:57.416Z,2.50
2023-01-17T14:26:37.796Z,2.40
2023-01-17T14:29:44.434Z,2.70
2023-01-17T14:32:18.728Z,3.10
2023-01-17T14:34:53.330Z,3.00
2023-01-17T14:37:34.373Z,3.00
2023-01-17T14:40:19.092Z,2.90
2023-01-17T14:43:02.731Z,3.60
2023-01-17T14:45:36.957Z,3.80
2023-01-17T14:48:16.667Z,6.30
2023-01-17T14:50:50.217Z,5.00
2023-01-17T14:53:28.263Z,2.60
2023-01-17T14:56:03.054Z,2.20
2023-01-17T14:58:36.639Z,2.20
2023-01-17T15:01:13.484Z,2.60
2023-01-17T15:03:48.205Z,4.00
2023-01-17T15:06:22.829Z,4.20
2023-01-17T15:08:55.106Z,3.60
2023-01-17T15:11:29.839Z,4.10
2023-01-17T15:14:06.019Z,3.90
2023-01-17T15:16:41.202Z,3.70
2023-01-17T15:19:15.533Z,3.90
2023-01-17T15:21:50.661Z,3.80
2023-01-17T15:24:25.287Z,4.40
2023-01-17T15:26:57.453Z,4.70
2023-01-17T15:29:33.424Z,4.30
2023-01-17T15:32:07.086Z,3.80
2023-01-17T15:34:40.776Z,4.20
2023-01-17T15:37:28.564Z,3.20
2023-01-17T15:40:18.829Z,5.10
2023-01-17T15:43:01.082Z,3.20
2023-01-17T15:45:36.357Z,3.50
2023-01-17T15:48:33.305Z,3.20
2023-01-17T15:51:05.228Z,3.10
2023-01-17T15:53:40.173Z,2.60
2023-01-17T15:56:31.046Z,2.70
2023-01-17T15:59:29.930Z,3.80
2023-01-17T16:02:02.029Z,21.20
2023-01-17T16:04:37.665Z,23.60
2023-01-17T16:07:19.666Z,14.80
2023-01-17T16:09:52.475Z,12.10
2023-01-17T16:12:24.367Z,9.30
2023-01-17T16:15:11.139Z,9.30
2023-01-17T16:17:47.384Z,6.30
2023-01-17T16:20:30.420Z,6.20
2023-01-17T16:23:02.784Z,7.00
2023-01-17T16:25:34.645Z,6.60
2023-01-17T16:28:08.424Z,6.50
2023-01-17T16:30:40.665Z,5.20
2023-01-17T16:33:14.098Z,6.30
2023-01-17T16:35:46.064Z,8.70
2023-01-17T16:38:19.923Z,9.00
2023-01-17T16:40:51.943Z,10.30
2023-01-17T16:43:24.197Z,13.20
2023-01-17T16:45:56.101Z,13.90
2023-01-17T16:48:28.197Z,14.30
2023-01-17T16:51:00.181Z,16.30
2023-01-17T16:53:31.973Z,18.60
2023-01-17T16:56:13.742Z,11.30
2023-01-17T16:58:45.749Z,8.60
2023-01-17T17:01:21.420Z,8.90
2023-01-17T17:03:53.417Z,10.30
2023-01-17T17:06:25.304Z,11.10
2023-01-17T17:08:57.214Z,13.00
2023-01-17T17:11:29.178Z,11.50
2023-01-17T17:14:01.072Z,9.20
2023-01-17T17:16:34.142Z,9.70
2023-01-17T17:19:07.977Z,10.10
2023-01-17T17:21:39.883Z,10.90
2023-01-17T17:24:15.196Z,9.50
2023-01-17T17:26:47.403Z,9.10
2023-01-17T17:29:19.334Z,8.60
2023-01-17T17:31:52.040Z,7.30
2023-01-17T17:34:26.003Z,8.40
2023-01-17T17:36:57.878Z,7.20
2023-01-17T17:39:30.248Z,7.80
2023-01-17T17:42:02.446Z,7.40
2023-01-17T17:44:34.770Z,7.20
2023-01-17T17:47:06.813Z,7.90
2023-01-17T17:49:38.707Z,9.30
2023-01-17T17:52:11.204Z,9.90
2023-01-17T17:54:43.969Z,11.80
2023-01-17T17:57:16.056Z,14.30
2023-01-17T17:59:47.937Z,15.50
2023-01-17T18:02:19.832Z,17.00
2023-01-17T18:04:52.480Z,15.70
2023-01-17T18:07:24.428Z,19.00
2023-01-17T18:09:56.304Z,19.80
2023-01-17T18:12:28.291Z,25.80
2023-01-17T18:15:00.695Z,31.30
2023-01-17T18:17:32.993Z,30.80
2023-01-17T18:20:07.627Z,27.10
2023-01-17T18:22:40.115Z,29.20
2023-01-17T18:25:12.801Z,32.70
2023-01-17T18:27:46.704Z,34.30
2023-01-17T18:30:28.447Z,38.50
2023-01-17T18:33:00.336Z,41.30
2023-01-17T18:35:32.358Z,44.30
2023-01-17T18:38:04.415Z,50.20
2023-01-17T18:40:38.223Z,61.30
2023-01-17T18:43:10.300Z,62.50
2023-01-17T18:45:42.323Z,60.70
2023-01-17T18:48:14.231Z,56.60
2023-01-17T18:50:55.209Z,58.90
2023-01-17T18:53:27.475Z,67.90
2023-01-17T18:56:02.428Z,59.90
2023-01-17T18:58:39.185Z,65.20
2023-01-17T19:01:13.913Z,61.90
2023-01-17T19:03:47.777Z,54.90
2023-01-17T19:06:22.210Z,59.80
2023-01-17T19:08:54.200Z,68.90
2023-01-17T19:11:27.634Z,62.20
2023-01-17T19:13:59.622Z,66.90
2023-01-17T19:16:34.833Z,76.10
2023-01-17T19:19:09.437Z,86.10
2023-01-17T19:21:41.327Z,78.10
2023-01-17T19:24:14.362Z,60.20
2023-01-17T19:26:47.828Z,58.20
2023-01-17T19:29:19.812Z,61.90
2023-01-17T19:31:51.818Z,60.50
2023-01-17T19:34:23.778Z,60.90
2023-01-17T19:36:56.431Z,52.10
2023-01-17T19:39:30.614Z,46.40
2023-01-17T19:42:02.473Z,46.10
2023-01-17T19:44:34.620Z,46.10
2023-01-17T19:47:06.564Z,46.00
2023-01-17T19:49:40.301Z,46.90
2023-01-17T19:52:12.917Z,49.80
2023-01-17T19:54:44.956Z,58.80
2023-01-17T19:57:17.980Z,67.30
2023-01-17T19:59:49.960Z,79.00
2023-01-17T20:02:22.108Z,76.80
2023-01-17T20:04:54.229Z,92.60
2023-01-17T20:07:26.311Z,110.10
2023-01-17T20:09:58.707Z,114.40
2023-01-17T20:12:31.510Z,121.70
2023-01-17T20:15:03.902Z,141.70
2023-01-17T20:17:36.056Z,142.60
2023-01-17T20:20:16.270Z,159.30
2023-01-17T20:22:48.427Z,164.10
2023-01-17T20:25:20.626Z,165.90
2023-01-17T20:27:52.710Z,165.60
2023-01-17T20:30:33.047Z,161.90
2023-01-17T20:33:05.512Z,144.80
2023-01-17T20:35:37.453Z,136.80
2023-01-17T20:38:10.727Z,134.20
2023-01-17T20:40:43.032Z,121.80
2023-01-17T20:43:15.165Z,109.30
2023-01-17T20:45:47.427Z,107.90
2023-01-17T20:48:20.860Z,95.20
2023-01-17T20:50:53.601Z,81.60
2023-01-17T20:53:25.650Z,68.70
2023-01-17T20:55:59.615Z,55.50
2023-01-17T20:58:32.103Z,57.30
2023-01-17T21:01:04.748Z,46.50
2023-01-17T21:03:37.982Z,53.40
2023-01-17T21:10:17.769Z,46.80
2023-01-17T21:12:49.909Z,37.70
2023-01-17T21:15:22.131Z,37.40
2023-01-17T21:17:55.027Z,34.50
2023-01-17T21:20:34.500Z,36.00
2023-01-17T21:23:08.722Z,35.00
2023-01-17T21:25:41.062Z,36.20
2023-01-17T21:28:13.160Z,37.20
2023-01-17T21:30:45.990Z,36.70
2023-01-17T21:33:18.375Z,34.30
2023-01-17T21:35:50.986Z,33.50
2023-01-17T21:38:23.289Z,34.20
2023-01-17T21:40:59.380Z,32.80
2023-01-17T21:43:32.277Z,34.70
2023-01-17T21:46:05.923Z,33.40
2023-01-17T21:48:39.494Z,34.60
2023-01-17T21:51:11.898Z,34.70
2023-01-17T21:53:44.285Z,34.50
2023-01-17T21:56:34.213Z,35.30
2023-01-17T21:59:06.663Z,34.60
2023-01-17T22:01:38.740Z,34.80
2023-01-17T22:04:13.336Z,33.20
2023-01-17T22:06:45.459Z,31.20
2023-01-17T22:09:17.857Z,29.70
2023-01-17T22:11:50.025Z,30.80
2023-01-17T22:14:22.387Z,29.20
2023-01-17T22:16:55.030Z,29.50
2023-01-17T22:19:27.356Z,29.30
2023-01-17T22:21:59.554Z,29.70
2023-01-17T22:24:31.757Z,38.70
2023-01-17T22:27:03.975Z,57.70
2023-01-17T22:29:36.579Z,83.50
2023-01-17T22:32:10.383Z,116.60
2023-01-17T22:34:43.125Z,107.10
2023-01-17T22:37:15.491Z,91.90
2023-01-17T22:39:47.659Z,89.70
2023-01-17T22:42:20.161Z,84.60
2023-01-17T22:44:52.401Z,78.10
2023-01-17T22:47:24.664Z,70.10
2023-01-17T22:49:56.870Z,70.90
2023-01-17T22:52:29.133Z,62.60
2023-01-17T22:55:01.628Z,56.00
2023-01-17T22:57:34.119Z,57.80
2023-01-17T23:00:15.151Z,54.40
2023-01-17T23:02:47.485Z,56.10
2023-01-17T23:05:20.579Z,49.80
2023-01-17T23:07:53.797Z,49.50
2023-01-17T23:10:50.713Z,52.20
2023-01-17T23:13:22.960Z,51.80
2023-01-17T23:16:12.752Z,55.10
2023-01-17T23:19:02.499Z,64.20
2023-01-17T23:21:48.708Z,63.40
2023-01-17T23:24:20.810Z,55.20
2023-01-17T23:27:06.635Z,52.70
2023-01-17T23:29:38.854Z,51.80
2023-01-17T23:32:11.027Z,48.70
2023-01-17T23:34:43.041Z,47.10
2023-01-17T23:37:15.094Z,46.30
2023-01-17T23:39:47.453Z,41.40
2023-01-17T23:42:37.062Z,36.70
2023-01-17T23:45:10.913Z,33.20
2023-01-17T23:47:45.626Z,34.30
2023-01-17T23:50:26.416Z,33.80
2023-01-17T23:52:58.906Z,34.40
2023-01-17T23:55:31.210Z,35.10
2023-01-17T23:58:03.791Z,35.50
